createdAt,value
2019-05-18T00:02:08.792Z,30.35
2019-05-18T00:07:38.448Z,29.40
2019-05-18T00:12:46.615Z,28.15
2019-05-18T00:17:54.593Z,28.65
2019-05-18T00:23:02.121Z,26.25
2019-05-18T00:28:10.424Z,26.90
2019-05-18T00:33:19.456Z,25.43
2019-05-18T00:38:30.357Z,24.10
2019-05-18T00:43:37.728Z,26.00
2019-05-18T00:48:45.143Z,24.60
2019-05-18T00:53:52.939Z,24.45
2019-05-18T00:59:00.562Z,25.25
2019-05-18T01:04:08.729Z,23.87
2019-05-18T01:09:16.009Z,23.20
2019-05-18T01:14:23.660Z,23.75
2019-05-18T01:19:31.126Z,25.35
2019-05-18T01:24:38.576Z,23.65
2019-05-18T01:29:46.025Z,22.30
2019-05-18T01:34:54.736Z,21.65
2019-05-18T01:40:02.797Z,20.82
2019-05-18T01:45:17.037Z,21.15
2019-05-18T01:50:21.124Z,19.42
2019-05-18T01:55:30.241Z,19.00
2019-05-18T02:00:38.139Z,19.05
2019-05-18T02:05:46.484Z,18.12
2019-05-18T02:10:54.871Z,18.40
2019-05-18T02:16:02.372Z,17.50
2019-05-18T02:21:10.241Z,16.82
2019-05-18T02:26:21.997Z,17.67
2019-05-18T02:36:35.354Z,16.12
2019-05-18T02:41:43.837Z,16.25
2019-05-18T02:46:51.180Z,15.30
2019-05-18T02:52:00.734Z,15.53
2019-05-18T02:57:08.525Z,16.80
2019-05-18T03:02:16.853Z,15.18
2019-05-18T03:07:25.801Z,15.85
2019-05-18T03:12:34.373Z,15.03
2019-05-18T03:17:42.911Z,14.58
2019-05-18T03:22:50.971Z,14.87
2019-05-18T03:28:00.806Z,14.58
2019-05-18T03:33:10.853Z,14.33
2019-05-18T03:38:22.381Z,14.90
2019-05-18T03:43:32.914Z,14.70
2019-05-18T03:48:39.817Z,14.98
2019-05-18T03:53:52.284Z,13.33
2019-05-18T03:59:00.497Z,13.58
2019-05-18T04:04:09.002Z,14.40
2019-05-18T04:09:17.821Z,14.33
2019-05-18T04:14:26.448Z,14.83
2019-05-18T04:24:44.927Z,14.43
2019-05-18T04:29:53.606Z,12.50
2019-05-18T04:35:01.339Z,13.30
2019-05-18T04:40:11.339Z,12.98
2019-05-18T04:50:26.406Z,13.50
2019-05-18T05:00:42.469Z,13.48
2019-05-18T05:05:49.938Z,12.20
2019-05-18T05:10:57.647Z,11.97
2019-05-18T05:16:06.906Z,11.90
2019-05-18T05:21:16.003Z,14.10
2019-05-18T05:26:24.996Z,12.43
2019-05-18T05:31:34.817Z,13.10
2019-05-18T05:41:51.731Z,12.00
2019-05-18T05:46:59.830Z,12.70
2019-05-18T05:52:08.628Z,15.23
2019-05-18T06:13:31.920Z,13.28
2019-05-18T06:18:42.724Z,11.88
2019-05-18T06:23:49.958Z,12.73
2019-05-18T06:29:00.945Z,12.93
2019-05-18T06:34:09.476Z,13.05
2019-05-18T06:39:17.366Z,12.63
2019-05-18T06:44:30.751Z,12.98
2019-05-18T06:49:38.211Z,13.18
2019-05-18T06:54:45.797Z,11.55
2019-05-18T06:59:53.241Z,11.18
2019-05-18T07:05:01.892Z,12.78
2019-05-18T07:10:10.663Z,14.38
2019-05-18T07:15:20.403Z,14.00
2019-05-18T07:20:34.022Z,13.03
2019-05-18T07:25:42.382Z,13.85
2019-05-18T07:30:49.831Z,12.70
2019-05-18T07:35:58.106Z,14.15
2019-05-18T07:41:05.633Z,14.38
2019-05-18T07:46:22.008Z,12.75
2019-05-18T07:51:37.233Z,13.22
2019-05-18T07:56:38.330Z,15.50
2019-05-18T08:01:45.719Z,13.43
2019-05-18T08:06:55.623Z,12.90
2019-05-18T08:12:14.917Z,12.53
2019-05-18T08:17:22.960Z,12.65
2019-05-18T08:22:30.630Z,12.20
2019-05-18T08:27:46.266Z,11.83
2019-05-18T08:32:53.691Z,12.20
2019-05-18T08:38:01.773Z,14.30
2019-05-18T08:43:12.302Z,11.90
2019-05-18T08:48:19.719Z,11.65
2019-05-18T08:53:27.679Z,12.98
2019-05-18T08:58:36.973Z,11.43
2019-05-18T09:08:52.366Z,12.18
2019-05-18T09:14:00.283Z,11.80
2019-05-18T09:19:16.060Z,12.33
2019-05-18T09:24:24.183Z,11.48
2019-05-18T09:29:32.708Z,11.60
2019-05-18T09:34:40.554Z,11.57
2019-05-18T09:39:48.878Z,12.03
2019-05-18T09:44:56.540Z,11.80
2019-05-18T09:50:04.442Z,13.65
2019-05-18T09:55:12.078Z,12.82
2019-05-18T10:00:21.233Z,12.43
2019-05-18T10:05:37.746Z,13.38
2019-05-18T10:10:45.874Z,11.63
2019-05-18T10:15:53.732Z,12.35
2019-05-18T10:21:01.645Z,31.42
2019-05-18T10:26:09.634Z,23.87
2019-05-18T10:31:17.287Z,22.13
2019-05-18T10:36:25.338Z,15.98
2019-05-18T10:41:32.976Z,17.23
2019-05-18T10:46:40.240Z,14.45
2019-05-18T10:51:48.063Z,13.83
2019-05-18T10:56:55.754Z,18.82
2019-05-18T11:02:03.358Z,17.42
2019-05-18T11:07:18.829Z,18.75
2019-05-18T11:12:27.818Z,14.03
2019-05-18T11:17:36.725Z,17.40
2019-05-18T11:22:44.857Z,16.23
2019-05-18T11:27:53.051Z,14.80
2019-05-18T11:33:01.409Z,14.15
2019-05-18T11:38:08.699Z,15.88
2019-05-18T11:43:15.975Z,15.90
2019-05-18T11:48:23.081Z,16.73
2019-05-18T11:53:30.940Z,17.73
2019-05-18T11:58:38.496Z,22.40
2019-05-18T12:03:45.748Z,22.93
2019-05-18T12:08:53.668Z,23.85
2019-05-18T12:14:01.644Z,24.07
2019-05-18T12:19:09.129Z,20.15
2019-05-18T12:24:16.776Z,19.82
2019-05-18T12:29:24.241Z,20.85
2019-05-18T12:34:31.722Z,20.00
2019-05-18T12:39:39.803Z,19.42
2019-05-18T12:44:47.358Z,20.75
2019-05-18T12:49:55.266Z,19.25
2019-05-18T12:55:02.608Z,19.27
2019-05-18T13:00:12.508Z,19.40
2019-05-18T13:05:20.025Z,18.35
2019-05-18T13:10:28.498Z,18.87
2019-05-18T13:15:35.835Z,19.15
2019-05-18T13:20:43.654Z,18.75
2019-05-18T13:25:51.054Z,18.40
2019-05-18T13:30:59.050Z,19.52
2019-05-18T13:36:07.533Z,19.48
2019-05-18T13:41:15.973Z,18.80
2019-05-18T13:46:23.652Z,19.07
2019-05-18T13:51:31.329Z,19.45
2019-05-18T13:56:39.967Z,18.98
2019-05-18T14:01:47.412Z,18.52
2019-05-18T14:07:07.095Z,19.27
2019-05-18T14:12:14.343Z,18.87
2019-05-18T14:17:22.457Z,20.75
2019-05-18T14:22:29.835Z,20.00
2019-05-18T14:27:37.826Z,20.55
2019-05-18T14:32:46.310Z,20.80
2019-05-18T14:37:53.967Z,21.12
2019-05-18T14:43:02.043Z,19.75
2019-05-18T14:48:10.226Z,22.17
2019-05-18T14:53:17.589Z,21.12
2019-05-18T14:58:25.280Z,22.42
2019-05-18T15:03:33.262Z,23.55
2019-05-18T15:08:41.269Z,23.10
2019-05-18T15:13:49.653Z,23.00
2019-05-18T15:18:57.000Z,23.47
2019-05-18T15:24:04.684Z,23.42
2019-05-18T15:29:12.598Z,21.42
2019-05-18T15:34:20.482Z,21.12
2019-05-18T15:39:28.277Z,21.65
2019-05-18T15:44:36.110Z,21.20
2019-05-18T15:49:44.533Z,20.35
2019-05-18T15:54:52.385Z,21.48
2019-05-18T16:00:00.043Z,22.17
2019-05-18T16:05:44.117Z,21.12
2019-05-18T16:10:51.802Z,22.07
2019-05-18T16:15:59.078Z,22.95
2019-05-18T16:21:06.253Z,23.10
2019-05-18T16:26:21.290Z,22.70
2019-05-18T16:31:23.183Z,23.60
2019-05-18T16:36:30.744Z,22.62
2019-05-18T16:41:39.139Z,24.02
2019-05-18T16:46:46.961Z,24.77
2019-05-18T16:51:54.348Z,23.60
2019-05-18T16:57:03.598Z,24.43
2019-05-18T17:02:11.468Z,24.15
2019-05-18T17:07:18.923Z,24.12
2019-05-18T17:12:29.981Z,23.77
2019-05-18T17:17:36.693Z,22.93
2019-05-18T17:22:43.971Z,23.50
2019-05-18T17:27:51.320Z,21.65
2019-05-18T17:32:58.626Z,23.95
2019-05-18T17:38:05.981Z,23.42
2019-05-18T17:43:13.795Z,22.87
2019-05-18T17:48:21.293Z,23.05
2019-05-18T17:53:28.462Z,23.50
2019-05-18T17:58:35.696Z,23.22
2019-05-18T18:03:43.157Z,24.15
2019-05-18T18:08:50.587Z,23.60
2019-05-18T18:13:57.936Z,24.37
2019-05-18T18:19:05.870Z,24.45
2019-05-18T18:24:13.859Z,25.40
2019-05-18T18:29:22.316Z,24.85
2019-05-18T18:34:30.312Z,25.40
2019-05-18T18:39:37.743Z,25.55
2019-05-18T18:44:45.128Z,24.65
2019-05-18T18:49:52.826Z,26.12
2019-05-18T18:55:01.326Z,25.50
2019-05-18T19:00:11.743Z,24.63
2019-05-18T19:05:39.103Z,24.98
2019-05-18T19:10:48.635Z,25.17
2019-05-18T19:15:55.945Z,24.57
2019-05-18T19:21:03.562Z,24.35
2019-05-18T19:26:11.396Z,25.08
2019-05-18T19:31:19.253Z,24.00
2019-05-18T19:36:27.087Z,23.40
2019-05-18T19:41:35.143Z,24.82
2019-05-18T19:46:43.039Z,25.23
2019-05-18T19:51:50.902Z,21.87
2019-05-18T19:56:58.280Z,23.27
2019-05-18T20:02:06.307Z,23.50
2019-05-18T20:07:13.983Z,23.38
2019-05-18T20:12:21.147Z,23.18
2019-05-18T20:17:29.255Z,24.10
2019-05-18T20:22:37.498Z,24.98
2019-05-18T20:27:45.358Z,25.37
2019-05-18T20:32:53.301Z,24.25
2019-05-18T20:38:01.643Z,23.95
2019-05-18T20:43:09.772Z,24.55
2019-05-18T20:48:17.371Z,25.35
2019-05-18T20:53:25.127Z,25.72
2019-05-18T20:58:40.091Z,24.92
2019-05-18T21:03:42.549Z,25.75
2019-05-18T21:08:51.292Z,24.30
2019-05-18T21:13:58.633Z,25.52
2019-05-18T21:19:06.493Z,24.57
2019-05-18T21:24:14.945Z,26.33
2019-05-18T21:29:23.638Z,25.75
2019-05-18T21:34:31.231Z,25.32
2019-05-18T21:39:40.014Z,26.65
2019-05-18T21:44:50.321Z,25.82
2019-05-18T21:49:58.744Z,25.85
2019-05-18T21:55:09.311Z,32.98
2019-05-18T22:00:17.003Z,31.15
2019-05-18T22:05:25.740Z,32.70
2019-05-18T22:10:33.806Z,33.13
2019-05-18T22:15:41.517Z,29.18
2019-05-18T22:20:49.438Z,29.07
2019-05-18T22:25:57.476Z,27.42
2019-05-18T22:31:05.590Z,29.77
2019-05-18T22:36:13.480Z,27.35
2019-05-18T22:41:22.175Z,27.65
2019-05-18T22:46:30.168Z,28.02
2019-05-18T22:51:37.963Z,28.23
2019-05-18T22:56:51.249Z,28.98
2019-05-18T23:02:01.779Z,28.55
2019-05-18T23:07:40.823Z,29.00
2019-05-18T23:23:27.923Z,27.90
2019-05-18T23:28:40.061Z,28.67
2019-05-18T23:33:56.723Z,27.82
2019-05-18T23:39:20.677Z,26.75
2019-05-18T23:44:34.115Z,26.60
2019-05-18T23:49:43.752Z,26.82
2019-05-18T23:54:54.618Z,58.73
